sensor_id;sensor_type;location;lat;lon;timestamp;P1;P2;P0
62631;PMS5003;48703;51.248;-0.546;2023-09-19T00:02:59;2.36;1.50;
62631;PMS5003;48703;51.248;-0.546;2023-09-19T00:06:01;2.26;2.24;
62631;PMS5003;48703;51.248;-0.546;2023-09-19T00:09:03;3.06;2.33;
62631;PMS5003;48703;51.248;-0.546;2023-09-19T00:12:04;2.23;2.19;
62631;PMS5003;48703;51.248;-0.546;2023-09-19T00:15:06;3.26;2.34;
62631;PMS5003;48703;51.248;-0.546;2023-09-19T00:18:07;2.91;2.49;
62631;PMS5003;48703;51.248;-0.546;2023-09-19T00:21:09;2.17;1.79;
62631;PMS5003;48703;51.248;-0.546;2023-09-19T00:24:10;4.00;2.16;
62631;PMS5003;48703;51.248;-0.546;2023-09-19T00:27:12;2.17;2.14;
62631;PMS5003;48703;51.248;-0.546;2023-09-19T00:30:13;3.09;2.04;
62631;PMS5003;48703;51.248;-0.546;2023-09-19T00:33:15;3.11;1.54;
62631;PMS5003;48703;51.248;-0.546;2023-09-19T00:36:16;2.89;2.56;
62631;PMS5003;48703;51.248;-0.546;2023-09-19T00:39:18;3.77;2.40;
62631;PMS5003;48703;51.248;-0.546;2023-09-19T00:42:19;3.77;1.81;
62631;PMS5003;48703;51.248;-0.546;2023-09-19T00:45:21;3.99;1.67;
62631;PMS5003;48703;51.248;-0.546;2023-09-19T00:48:23;4.06;2.74;
62631;PMS5003;48703;51.248;-0.546;2023-09-19T00:51:24;3.53;2.19;
62631;PMS5003;48703;51.248;-0.546;2023-09-19T00:54:26;2.53;2.19;
62631;PMS5003;48703;51.248;-0.546;2023-09-19T00:57:27;2.01;1.37;
62631;PMS5003;48703;51.248;-0.546;2023-09-19T01:00:29;2.64;2.03;
62631;PMS5003;48703;51.248;-0.546;2023-09-19T01:03:30;3.34;2.27;
62631;PMS5003;48703;51.248;-0.546;2023-09-19T01:06:31;2.30;1.40;
62631;PMS5003;48703;51.248;-0.546;2023-09-19T01:09:33;2.76;2.20;
62631;PMS5003;48703;51.248;-0.546;2023-09-19T01:12:36;3.71;2.30;
62631;PMS5003;48703;51.248;-0.546;2023-09-19T01:15:40;3.31;2.04;
62631;PMS5003;48703;51.248;-0.546;2023-09-19T01:18:40;3.69;2.53;
62631;PMS5003;48703;51.248;-0.546;2023-09-19T01:21:41;2.81;2.53;
62631;PMS5003;48703;51.248;-0.546;2023-09-19T01:25:19;1.73;1.36;
62631;PMS5003;48703;51.248;-0.546;2023-09-19T01:27:56;3.39;2.07;
62631;PMS5003;48703;51.248;-0.546;2023-09-19T01:30:43;2.50;1.84;
62631;PMS5003;48703;51.248;-0.546;2023-09-19T01:34:01;4.97;2.37;
62631;PMS5003;48703;51.248;-0.546;2023-09-19T01:36:46;3.67;1.66;
62631;PMS5003;48703;51.248;-0.546;2023-09-19T01:39:48;3.06;2.20;
62631;PMS5003;48703;51.248;-0.546;2023-09-19T01:42:50;2.66;2.57;
62631;PMS5003;48703;51.248;-0.546;2023-09-19T01:45:53;3.91;2.23;
62631;PMS5003;48703;51.248;-0.546;2023-09-19T01:48:54;2.64;1.64;
62631;PMS5003;48703;51.248;-0.546;2023-09-19T01:51:57;3.76;2.41;
62631;PMS5003;48703;51.248;-0.546;2023-09-19T01:54:56;2.51;2.00;
62631;PMS5003;48703;51.248;-0.546;2023-09-19T01:58:00;3.43;2.60;
62631;PMS5003;48703;51.248;-0.546;2023-09-19T02:00:59;4.73;1.79;
62631;PMS5003;48703;51.248;-0.546;2023-09-19T02:04:00;3.44;1.90;
62631;PMS5003;48703;51.248;-0.546;2023-09-19T02:07:02;4.26;2.53;
62631;PMS5003;48703;51.248;-0.546;2023-09-19T02:10:03;2.94;1.86;
62631;PMS5003;48703;51.248;-0.546;2023-09-19T02:13:04;2.20;1.83;
62631;PMS5003;48703;51.248;-0.546;2023-09-19T02:16:06;1.96;1.31;
62631;PMS5003;48703;51.248;-0.546;2023-09-19T02:19:08;3.56;2.94;
62631;PMS5003;48703;51.248;-0.546;2023-09-19T02:22:09;2.93;2.33;
62631;PMS5003;48703;51.248;-0.546;2023-09-19T02:25:11;3.44;2.00;
62631;PMS5003;48703;51.248;-0.546;2023-09-19T02:28:12;3.69;2.40;
62631;PMS5003;48703;51.248;-0.546;2023-09-19T02:31:14;2.31;1.71;
62631;PMS5003;48703;51.248;-0.546;2023-09-19T02:34:15;3.26;2.13;
62631;PMS5003;48703;51.248;-0.546;2023-09-19T02:37:17;2.11;1.91;
62631;PMS5003;48703;51.248;-0.546;2023-09-19T02:40:19;3.69;1.87;
62631;PMS5003;48703;51.248;-0.546;2023-09-19T02:43:20;4.13;2.84;
62631;PMS5003;48703;51.248;-0.546;2023-09-19T02:46:21;2.47;2.11;
62631;PMS5003;48703;51.248;-0.546;2023-09-19T02:49:23;3.64;2.40;
62631;PMS5003;48703;51.248;-0.546;2023-09-19T02:52:24;2.60;1.39;
62631;PMS5003;48703;51.248;-0.546;2023-09-19T02:55:26;3.91;2.13;
62631;PMS5003;48703;51.248;-0.546;2023-09-19T02:58:28;2.47;2.13;
62631;PMS5003;48703;51.248;-0.546;2023-09-19T03:01:29;2.23;1.93;
62631;PMS5003;48703;51.248;-0.546;2023-09-19T03:04:31;2.87;2.87;
62631;PMS5003;48703;51.248;-0.546;2023-09-19T03:07:33;2.27;1.33;
62631;PMS5003;48703;51.248;-0.546;2023-09-19T03:10:34;2.44;1.69;
62631;PMS5003;48703;51.248;-0.546;2023-09-19T03:13:36;4.37;2.56;
62631;PMS5003;48703;51.248;-0.546;2023-09-19T03:16:37;7.06;3.67;
62631;PMS5003;48703;51.248;-0.546;2023-09-19T03:19:39;1.99;1.99;
62631;PMS5003;48703;51.248;-0.546;2023-09-19T03:22:40;2.40;2.40;
62631;PMS5003;48703;51.248;-0.546;2023-09-19T03:25:42;2.60;2.26;
62631;PMS5003;48703;51.248;-0.546;2023-09-19T03:28:43;2.57;2.40;
62631;PMS5003;48703;51.248;-0.546;2023-09-19T03:31:45;2.19;1.76;
62631;PMS5003;48703;51.248;-0.546;2023-09-19T03:34:46;3.20;2.76;
62631;PMS5003;48703;51.248;-0.546;2023-09-19T03:37:48;2.71;2.40;
62631;PMS5003;48703;51.248;-0.546;2023-09-19T03:40:49;2.87;2.24;
62631;PMS5003;48703;51.248;-0.546;2023-09-19T03:43:51;3.77;3.33;
62631;PMS5003;48703;51.248;-0.546;2023-09-19T03:46:52;4.07;2.84;
62631;PMS5003;48703;51.248;-0.546;2023-09-19T03:49:54;2.73;2.06;
62631;PMS5003;48703;51.248;-0.546;2023-09-19T03:52:56;4.14;3.29;
62631;PMS5003;48703;51.248;-0.546;2023-09-19T03:55:57;2.87;2.44;
62631;PMS5003;48703;51.248;-0.546;2023-09-19T03:58:59;6.20;3.33;
62631;PMS5003;48703;51.248;-0.546;2023-09-19T04:02:00;3.29;3.23;
62631;PMS5003;48703;51.248;-0.546;2023-09-19T04:05:02;3.87;3.17;
62631;PMS5003;48703;51.248;-0.546;2023-09-19T04:08:03;5.94;3.29;
62631;PMS5003;48703;51.248;-0.546;2023-09-19T04:11:05;3.64;2.90;
62631;PMS5003;48703;51.248;-0.546;2023-09-19T04:14:06;2.09;2.09;
62631;PMS5003;48703;51.248;-0.546;2023-09-19T04:17:08;5.24;2.91;
62631;PMS5003;48703;51.248;-0.546;2023-09-19T04:20:09;2.77;1.99;
62631;PMS5003;48703;51.248;-0.546;2023-09-19T04:23:11;2.80;2.20;
62631;PMS5003;48703;51.248;-0.546;2023-09-19T04:26:12;3.64;2.09;
62631;PMS5003;48703;51.248;-0.546;2023-09-19T04:29:14;5.24;3.63;
62631;PMS5003;48703;51.248;-0.546;2023-09-19T04:32:15;3.74;1.77;
62631;PMS5003;48703;51.248;-0.546;2023-09-19T04:35:17;2.04;1.76;
62631;PMS5003;48703;51.248;-0.546;2023-09-19T04:38:18;3.19;2.33;
62631;PMS5003;48703;51.248;-0.546;2023-09-19T04:41:20;1.93;1.93;
62631;PMS5003;48703;51.248;-0.546;2023-09-19T04:44:21;3.94;2.13;
62631;PMS5003;48703;51.248;-0.546;2023-09-19T04:47:23;1.79;0.80;
62631;PMS5003;48703;51.248;-0.546;2023-09-19T04:50:24;2.74;1.69;
62631;PMS5003;48703;51.248;-0.546;2023-09-19T04:53:26;1.84;1.33;
62631;PMS5003;48703;51.248;-0.546;2023-09-19T04:56:27;2.50;1.83;
62631;PMS5003;48703;51.248;-0.546;2023-09-19T04:59:29;1.50;1.44;
62631;PMS5003;48703;51.248;-0.546;2023-09-19T05:02:30;4.03;2.70;
62631;PMS5003;48703;51.248;-0.546;2023-09-19T05:05:32;2.17;2.17;
62631;PMS5003;48703;51.248;-0.546;2023-09-19T05:08:33;1.59;0.70;
62631;PMS5003;48703;51.248;-0.546;2023-09-19T05:11:35;2.71;1.61;
62631;PMS5003;48703;51.248;-0.546;2023-09-19T05:14:37;3.43;1.60;
62631;PMS5003;48703;51.248;-0.546;2023-09-19T05:17:38;4.66;1.74;
62631;PMS5003;48703;51.248;-0.546;2023-09-19T05:20:40;1.77;1.26;
62631;PMS5003;48703;51.248;-0.546;2023-09-19T05:23:41;1.83;1.17;
62631;PMS5003;48703;51.248;-0.546;2023-09-19T05:26:43;2.80;2.23;
62631;PMS5003;48703;51.248;-0.546;2023-09-19T05:29:45;1.67;1.46;
62631;PMS5003;48703;51.248;-0.546;2023-09-19T05:32:46;1.56;1.13;
62631;PMS5003;48703;51.248;-0.546;2023-09-19T05:35:48;3.44;1.87;
62631;PMS5003;48703;51.248;-0.546;2023-09-19T05:38:49;1.40;1.40;
62631;PMS5003;48703;51.248;-0.546;2023-09-19T05:41:51;3.30;2.09;
62631;PMS5003;48703;51.248;-0.546;2023-09-19T05:44:52;1.13;1.13;
62631;PMS5003;48703;51.248;-0.546;2023-09-19T05:47:54;2.61;1.47;
62631;PMS5003;48703;51.248;-0.546;2023-09-19T05:50:56;3.59;2.24;
62631;PMS5003;48703;51.248;-0.546;2023-09-19T05:53:57;3.04;1.36;
62631;PMS5003;48703;51.248;-0.546;2023-09-19T05:56:59;2.61;1.89;
62631;PMS5003;48703;51.248;-0.546;2023-09-19T06:00:00;1.50;1.24;
62631;PMS5003;48703;51.248;-0.546;2023-09-19T06:03:02;1.70;1.03;
62631;PMS5003;48703;51.248;-0.546;2023-09-19T06:06:03;1.63;1.16;
62631;PMS5003;48703;51.248;-0.546;2023-09-19T06:09:05;2.20;1.00;
62631;PMS5003;48703;51.248;-0.546;2023-09-19T06:12:07;1.17;1.17;
62631;PMS5003;48703;51.248;-0.546;2023-09-19T06:15:08;1.41;1.13;
62631;PMS5003;48703;51.248;-0.546;2023-09-19T06:18:10;1.44;0.74;
62631;PMS5003;48703;51.248;-0.546;2023-09-19T06:21:11;1.14;1.06;
62631;PMS5003;48703;51.248;-0.546;2023-09-19T06:24:13;1.76;0.94;
62631;PMS5003;48703;51.248;-0.546;2023-09-19T06:27:14;1.13;0.99;
62631;PMS5003;48703;51.248;-0.546;2023-09-19T06:30:16;1.56;1.00;
62631;PMS5003;48703;51.248;-0.546;2023-09-19T06:33:17;0.64;0.64;
62631;PMS5003;48703;51.248;-0.546;2023-09-19T06:36:19;2.66;1.07;
62631;PMS5003;48703;51.248;-0.546;2023-09-19T06:39:20;2.69;1.87;
62631;PMS5003;48703;51.248;-0.546;2023-09-19T06:42:22;2.10;1.89;
62631;PMS5003;48703;51.248;-0.546;2023-09-19T06:45:23;2.61;2.61;
62631;PMS5003;48703;51.248;-0.546;2023-09-19T06:48:25;3.69;2.27;
62631;PMS5003;48703;51.248;-0.546;2023-09-19T06:51:26;3.57;3.06;
62631;PMS5003;48703;51.248;-0.546;2023-09-19T06:54:28;3.14;2.46;
62631;PMS5003;48703;51.248;-0.546;2023-09-19T06:57:29;3.56;2.96;
62631;PMS5003;48703;51.248;-0.546;2023-09-19T07:00:31;3.86;2.36;
62631;PMS5003;48703;51.248;-0.546;2023-09-19T07:03:32;1.93;1.93;
62631;PMS5003;48703;51.248;-0.546;2023-09-19T07:06:34;3.50;2.89;
62631;PMS5003;48703;51.248;-0.546;2023-09-19T07:09:35;4.46;2.89;
62631;PMS5003;48703;51.248;-0.546;2023-09-19T07:12:37;2.89;2.57;
62631;PMS5003;48703;51.248;-0.546;2023-09-19T07:15:38;2.80;2.13;
62631;PMS5003;48703;51.248;-0.546;2023-09-19T07:18:40;2.43;2.43;
62631;PMS5003;48703;51.248;-0.546;2023-09-19T07:21:41;3.40;2.91;
62631;PMS5003;48703;51.248;-0.546;2023-09-19T07:24:42;3.46;2.26;
62631;PMS5003;48703;51.248;-0.546;2023-09-19T07:27:44;4.94;3.19;
62631;PMS5003;48703;51.248;-0.546;2023-09-19T07:30:45;2.94;1.69;
62631;PMS5003;48703;51.248;-0.546;2023-09-19T07:33:47;3.20;2.09;
62631;PMS5003;48703;51.248;-0.546;2023-09-19T07:36:48;2.59;2.57;
62631;PMS5003;48703;51.248;-0.546;2023-09-19T07:39:50;5.81;3.79;
62631;PMS5003;48703;51.248;-0.546;2023-09-19T07:42:51;4.26;2.63;
62631;PMS5003;48703;51.248;-0.546;2023-09-19T07:45:53;3.84;2.61;
62631;PMS5003;48703;51.248;-0.546;2023-09-19T07:48:54;4.97;4.68;
62631;PMS5003;48703;51.248;-0.546;2023-09-19T07:51:55;4.06;3.07;
62631;PMS5003;48703;51.248;-0.546;2023-09-19T07:54:57;4.86;3.36;
62631;PMS5003;48703;51.248;-0.546;2023-09-19T07:57:59;4.61;4.07;
62631;PMS5003;48703;51.248;-0.546;2023-09-19T08:01:02;4.57;4.13;
62631;PMS5003;48703;51.248;-0.546;2023-09-19T08:04:02;4.99;3.84;
62631;PMS5003;48703;51.248;-0.546;2023-09-19T08:07:03;6.70;5.66;
62631;PMS5003;48703;51.248;-0.546;2023-09-19T08:10:05;8.83;6.87;
62631;PMS5003;48703;51.248;-0.546;2023-09-19T08:13:06;8.29;7.09;
62631;PMS5003;48703;51.248;-0.546;2023-09-19T08:16:07;5.70;5.40;
62631;PMS5003;48703;51.248;-0.546;2023-09-19T08:19:09;5.33;4.43;
62631;PMS5003;48703;51.248;-0.546;2023-09-19T08:22:10;7.20;5.41;
62631;PMS5003;48703;51.248;-0.546;2023-09-19T08:25:11;7.67;6.87;
62631;PMS5003;48703;51.248;-0.546;2023-09-19T08:28:13;7.76;5.50;
62631;PMS5003;48703;51.248;-0.546;2023-09-19T08:31:14;7.90;6.43;
62631;PMS5003;48703;51.248;-0.546;2023-09-19T08:34:16;7.23;5.54;
62631;PMS5003;48703;51.248;-0.546;2023-09-19T08:37:17;8.81;6.83;
62631;PMS5003;48703;51.248;-0.546;2023-09-19T08:40:18;6.99;5.77;
62631;PMS5003;48703;51.248;-0.546;2023-09-19T08:43:21;8.27;5.87;
62631;PMS5003;48703;51.248;-0.546;2023-09-19T08:46:22;6.60;5.06;
62631;PMS5003;48703;51.248;-0.546;2023-09-19T08:49:24;6.57;5.79;
62631;PMS5003;48703;51.248;-0.546;2023-09-19T08:52:26;6.17;5.69;
62631;PMS5003;48703;51.248;-0.546;2023-09-19T08:55:27;6.50;5.79;
62631;PMS5003;48703;51.248;-0.546;2023-09-19T08:58:30;7.81;6.47;
62631;PMS5003;48703;51.248;-0.546;2023-09-19T09:01:29;6.32;6.01;
62631;PMS5003;48703;51.248;-0.546;2023-09-19T09:04:31;8.20;6.70;
62631;PMS5003;48703;51.248;-0.546;2023-09-19T09:07:32;6.51;5.77;
62631;PMS5003;48703;51.248;-0.546;2023-09-19T09:10:33;7.51;5.94;
62631;PMS5003;48703;51.248;-0.546;2023-09-19T09:13:35;6.69;5.49;
62631;PMS5003;48703;51.248;-0.546;2023-09-19T09:16:36;9.34;6.69;
62631;PMS5003;48703;51.248;-0.546;2023-09-19T09:19:37;9.26;7.61;
62631;PMS5003;48703;51.248;-0.546;2023-09-19T09:22:41;7.06;5.69;
62631;PMS5003;48703;51.248;-0.546;2023-09-19T09:25:49;9.79;6.46;
62631;PMS5003;48703;51.248;-0.546;2023-09-19T09:28:44;11.09;7.38;
62631;PMS5003;48703;51.248;-0.546;2023-09-19T09:31:43;8.01;6.47;
62631;PMS5003;48703;51.248;-0.546;2023-09-19T09:34:44;8.11;5.99;
62631;PMS5003;48703;51.248;-0.546;2023-09-19T09:37:46;8.51;6.63;
62631;PMS5003;48703;51.248;-0.546;2023-09-19T09:40:48;9.00;8.04;
62631;PMS5003;48703;51.248;-0.546;2023-09-19T09:43:48;9.16;7.57;
62631;PMS5003;48703;51.248;-0.546;2023-09-19T09:46:49;9.51;7.61;
62631;PMS5003;48703;51.248;-0.546;2023-09-19T09:49:51;10.83;8.74;
62631;PMS5003;48703;51.248;-0.546;2023-09-19T09:52:52;10.57;8.71;
62631;PMS5003;48703;51.248;-0.546;2023-09-19T09:55:57;9.90;6.73;
62631;PMS5003;48703;51.248;-0.546;2023-09-19T09:58:55;9.97;7.90;
62631;PMS5003;48703;51.248;-0.546;2023-09-19T10:01:57;9.20;8.17;
62631;PMS5003;48703;51.248;-0.546;2023-09-19T10:04:58;11.29;9.53;
62631;PMS5003;48703;51.248;-0.546;2023-09-19T10:08:10;13.44;9.80;
62631;PMS5003;48703;51.248;-0.546;2023-09-19T10:11:01;11.53;9.94;
62631;PMS5003;48703;51.248;-0.546;2023-09-19T10:14:03;11.46;10.13;
62631;PMS5003;48703;51.248;-0.546;2023-09-19T10:17:04;11.66;9.86;
62631;PMS5003;48703;51.248;-0.546;2023-09-19T10:20:05;12.66;8.91;
62631;PMS5003;48703;51.248;-0.546;2023-09-19T10:23:08;9.80;9.63;
62631;PMS5003;48703;51.248;-0.546;2023-09-19T10:26:08;8.60;7.83;
62631;PMS5003;48703;51.248;-0.546;2023-09-19T10:29:09;10.28;9.64;
62631;PMS5003;48703;51.248;-0.546;2023-09-19T10:32:12;12.01;9.63;
62631;PMS5003;48703;51.248;-0.546;2023-09-19T10:35:13;10.03;7.84;
62631;PMS5003;48703;51.248;-0.546;2023-09-19T10:38:16;8.24;7.07;
62631;PMS5003;48703;51.248;-0.546;2023-09-19T10:41:15;9.80;7.84;
62631;PMS5003;48703;51.248;-0.546;2023-09-19T10:44:17;10.89;8.40;
62631;PMS5003;48703;51.248;-0.546;2023-09-19T10:47:18;9.16;7.37;
62631;PMS5003;48703;51.248;-0.546;2023-09-19T10:50:20;6.03;5.14;
62631;PMS5003;48703;51.248;-0.546;2023-09-19T10:53:21;7.10;5.84;
62631;PMS5003;48703;51.248;-0.546;2023-09-19T10:56:23;8.87;7.10;
62631;PMS5003;48703;51.248;-0.546;2023-09-19T10:59:24;9.50;7.71;
62631;PMS5003;48703;51.248;-0.546;2023-09-19T11:02:25;8.49;7.17;
62631;PMS5003;48703;51.248;-0.546;2023-09-19T11:05:27;8.83;7.13;
62631;PMS5003;48703;51.248;-0.546;2023-09-19T11:08:28;9.84;7.77;
62631;PMS5003;48703;51.248;-0.546;2023-09-19T11:10:59;8.19;6.34;
62631;PMS5003;48703;51.248;-0.546;2023-09-19T11:13:30;12.20;10.45;
62631;PMS5003;48703;51.248;-0.546;2023-09-19T11:16:31;11.84;9.71;
62631;PMS5003;48703;51.248;-0.546;2023-09-19T11:20:14;10.90;10.23;
62631;PMS5003;48703;51.248;-0.546;2023-09-19T11:22:43;7.99;7.56;
62631;PMS5003;48703;51.248;-0.546;2023-09-19T11:25:42;9.51;6.67;
62631;PMS5003;48703;51.248;-0.546;2023-09-19T11:28:36;8.69;7.87;
62631;PMS5003;48703;51.248;-0.546;2023-09-19T11:31:42;9.07;7.59;
62631;PMS5003;48703;51.248;-0.546;2023-09-19T11:34:40;8.53;7.13;
62631;PMS5003;48703;51.248;-0.546;2023-09-19T11:38:03;5.87;5.47;
62631;PMS5003;48703;51.248;-0.546;2023-09-19T11:40:44;7.38;6.61;
62631;PMS5003;48703;51.248;-0.546;2023-09-19T11:43:43;5.66;5.14;
62631;PMS5003;48703;51.248;-0.546;2023-09-19T11:46:52;8.93;7.03;
62631;PMS5003;48703;51.248;-0.546;2023-09-19T11:49:45;5.99;4.91;
62631;PMS5003;48703;51.248;-0.546;2023-09-19T11:52:47;9.63;7.53;
62631;PMS5003;48703;51.248;-0.546;2023-09-19T11:55:48;11.93;9.59;
62631;PMS5003;48703;51.248;-0.546;2023-09-19T11:58:50;10.27;9.04;
62631;PMS5003;48703;51.248;-0.546;2023-09-19T12:01:52;9.63;8.63;
62631;PMS5003;48703;51.248;-0.546;2023-09-19T12:04:53;9.59;8.43;
62631;PMS5003;48703;51.248;-0.546;2023-09-19T12:07:54;9.96;9.04;
62631;PMS5003;48703;51.248;-0.546;2023-09-19T12:10:55;11.60;10.03;
62631;PMS5003;48703;51.248;-0.546;2023-09-19T12:13:57;9.53;7.56;
62631;PMS5003;48703;51.248;-0.546;2023-09-19T12:16:58;7.76;7.33;
62631;PMS5003;48703;51.248;-0.546;2023-09-19T12:20:00;7.06;6.71;
62631;PMS5003;48703;51.248;-0.546;2023-09-19T12:23:01;8.23;6.51;
62631;PMS5003;48703;51.248;-0.546;2023-09-19T12:26:02;8.06;7.39;
62631;PMS5003;48703;51.248;-0.546;2023-09-19T12:29:04;7.71;6.79;
62631;PMS5003;48703;51.248;-0.546;2023-09-19T12:32:05;5.24;4.94;
62631;PMS5003;48703;51.248;-0.546;2023-09-19T12:35:07;7.06;6.50;
62631;PMS5003;48703;51.248;-0.546;2023-09-19T12:38:08;5.44;5.36;
62631;PMS5003;48703;51.248;-0.546;2023-09-19T12:41:09;9.11;6.46;
62631;PMS5003;48703;51.248;-0.546;2023-09-19T12:44:11;6.06;6.06;
62631;PMS5003;48703;51.248;-0.546;2023-09-19T12:47:13;5.70;5.56;
62631;PMS5003;48703;51.248;-0.546;2023-09-19T12:50:14;6.23;5.96;
62631;PMS5003;48703;51.248;-0.546;2023-09-19T12:53:24;6.09;5.57;
62631;PMS5003;48703;51.248;-0.546;2023-09-19T12:56:17;7.29;6.54;
62631;PMS5003;48703;51.248;-0.546;2023-09-19T12:59:18;7.74;6.83;
62631;PMS5003;48703;51.248;-0.546;2023-09-19T13:02:19;9.13;7.83;
62631;PMS5003;48703;51.248;-0.546;2023-09-19T13:05:21;8.04;6.54;
62631;PMS5003;48703;51.248;-0.546;2023-09-19T13:08:24;8.41;7.04;
62631;PMS5003;48703;51.248;-0.546;2023-09-19T13:11:23;8.14;7.74;
62631;PMS5003;48703;51.248;-0.546;2023-09-19T13:14:25;8.69;7.11;
62631;PMS5003;48703;51.248;-0.546;2023-09-19T13:17:26;9.79;8.24;
62631;PMS5003;48703;51.248;-0.546;2023-09-19T13:20:28;9.16;8.13;
62631;PMS5003;48703;51.248;-0.546;2023-09-19T13:23:29;9.91;8.90;
62631;PMS5003;48703;51.248;-0.546;2023-09-19T13:26:30;8.40;7.54;
62631;PMS5003;48703;51.248;-0.546;2023-09-19T13:29:32;8.61;7.26;
62631;PMS5003;48703;51.248;-0.546;2023-09-19T13:32:33;8.03;7.34;
62631;PMS5003;48703;51.248;-0.546;2023-09-19T13:35:35;8.50;6.07;
62631;PMS5003;48703;51.248;-0.546;2023-09-19T13:38:36;6.47;6.00;
62631;PMS5003;48703;51.248;-0.546;2023-09-19T13:41:37;7.99;7.61;
62631;PMS5003;48703;51.248;-0.546;2023-09-19T13:44:39;9.40;8.44;
62631;PMS5003;48703;51.248;-0.546;2023-09-19T13:47:40;8.97;7.73;
62631;PMS5003;48703;51.248;-0.546;2023-09-19T13:50:42;10.03;7.89;
62631;PMS5003;48703;51.248;-0.546;2023-09-19T13:53:43;9.21;7.73;
62631;PMS5003;48703;51.248;-0.546;2023-09-19T13:56:45;8.04;7.30;
62631;PMS5003;48703;51.248;-0.546;2023-09-19T13:59:46;9.69;6.86;
62631;PMS5003;48703;51.248;-0.546;2023-09-19T14:02:47;7.73;7.33;
62631;PMS5003;48703;51.248;-0.546;2023-09-19T14:05:49;10.14;8.49;
62631;PMS5003;48703;51.248;-0.546;2023-09-19T14:08:50;8.76;6.79;
62631;PMS5003;48703;51.248;-0.546;2023-09-19T14:11:51;8.65;7.99;
62631;PMS5003;48703;51.248;-0.546;2023-09-19T14:14:53;6.69;6.04;
62631;PMS5003;48703;51.248;-0.546;2023-09-19T14:17:54;6.93;6.93;
62631;PMS5003;48703;51.248;-0.546;2023-09-19T14:20:55;10.09;8.41;
62631;PMS5003;48703;51.248;-0.546;2023-09-19T14:23:57;8.09;6.84;
62631;PMS5003;48703;51.248;-0.546;2023-09-19T14:26:58;6.37;6.07;
62631;PMS5003;48703;51.248;-0.546;2023-09-19T14:29:59;7.16;6.40;
62631;PMS5003;48703;51.248;-0.546;2023-09-19T14:33:01;9.40;7.80;
62631;PMS5003;48703;51.248;-0.546;2023-09-19T14:36:03;9.04;8.61;
62631;PMS5003;48703;51.248;-0.546;2023-09-19T14:39:04;8.53;6.77;
62631;PMS5003;48703;51.248;-0.546;2023-09-19T14:42:05;6.86;6.17;
62631;PMS5003;48703;51.248;-0.546;2023-09-19T14:45:07;8.14;6.46;
62631;PMS5003;48703;51.248;-0.546;2023-09-19T14:48:08;7.10;5.57;
62631;PMS5003;48703;51.248;-0.546;2023-09-19T14:51:09;3.96;3.96;
62631;PMS5003;48703;51.248;-0.546;2023-09-19T14:54:11;6.39;5.59;
62631;PMS5003;48703;51.248;-0.546;2023-09-19T14:57:12;5.91;5.44;
62631;PMS5003;48703;51.248;-0.546;2023-09-19T15:00:14;5.39;4.71;
62631;PMS5003;48703;51.248;-0.546;2023-09-19T15:03:15;6.25;5.91;
62631;PMS5003;48703;51.248;-0.546;2023-09-19T15:06:16;4.57;4.09;
62631;PMS5003;48703;51.248;-0.546;2023-09-19T15:09:17;5.79;5.49;
62631;PMS5003;48703;51.248;-0.546;2023-09-19T15:12:19;4.21;3.46;
62631;PMS5003;48703;51.248;-0.546;2023-09-19T15:15:20;5.60;4.70;
62631;PMS5003;48703;51.248;-0.546;2023-09-19T15:18:22;3.66;3.44;
62631;PMS5003;48703;51.248;-0.546;2023-09-19T15:21:23;5.73;4.50;
62631;PMS5003;48703;51.248;-0.546;2023-09-19T15:24:25;7.40;5.24;
62631;PMS5003;48703;51.248;-0.546;2023-09-19T15:27:26;4.99;4.37;
62631;PMS5003;48703;51.248;-0.546;2023-09-19T15:30:27;4.43;4.26;
62631;PMS5003;48703;51.248;-0.546;2023-09-19T15:33:29;2.99;2.99;
62631;PMS5003;48703;51.248;-0.546;2023-09-19T15:36:30;4.49;4.01;
62631;PMS5003;48703;51.248;-0.546;2023-09-19T15:39:31;5.49;3.91;
62631;PMS5003;48703;51.248;-0.546;2023-09-19T15:42:33;3.56;3.39;
62631;PMS5003;48703;51.248;-0.546;2023-09-19T15:45:34;4.81;4.54;
62631;PMS5003;48703;51.248;-0.546;2023-09-19T15:48:36;6.26;4.59;
62631;PMS5003;48703;51.248;-0.546;2023-09-19T15:51:37;5.04;4.03;
62631;PMS5003;48703;51.248;-0.546;2023-09-19T15:54:38;6.16;4.81;
62631;PMS5003;48703;51.248;-0.546;2023-09-19T15:57:40;6.16;5.99;
62631;PMS5003;48703;51.248;-0.546;2023-09-19T16:00:42;6.87;5.37;
62631;PMS5003;48703;51.248;-0.546;2023-09-19T16:03:44;4.77;4.59;
62631;PMS5003;48703;51.248;-0.546;2023-09-19T16:06:45;5.13;4.73;
62631;PMS5003;48703;51.248;-0.546;2023-09-19T16:09:47;8.61;6.59;
62631;PMS5003;48703;51.248;-0.546;2023-09-19T16:12:48;6.29;6.10;
62631;PMS5003;48703;51.248;-0.546;2023-09-19T16:15:49;7.90;6.66;
62631;PMS5003;48703;51.248;-0.546;2023-09-19T16:18:51;5.36;4.93;
62631;PMS5003;48703;51.248;-0.546;2023-09-19T16:21:52;6.90;5.90;
62631;PMS5003;48703;51.248;-0.546;2023-09-19T16:24:54;6.60;6.29;
62631;PMS5003;48703;51.248;-0.546;2023-09-19T16:27:55;9.53;6.21;
62631;PMS5003;48703;51.248;-0.546;2023-09-19T16:30:57;7.67;7.06;
62631;PMS5003;48703;51.248;-0.546;2023-09-19T16:33:57;7.04;5.43;
62631;PMS5003;48703;51.248;-0.546;2023-09-19T16:37:00;6.71;5.47;
62631;PMS5003;48703;51.248;-0.546;2023-09-19T16:40:00;9.99;7.37;
62631;PMS5003;48703;51.248;-0.546;2023-09-19T16:43:01;7.97;7.32;
62631;PMS5003;48703;51.248;-0.546;2023-09-19T16:46:03;9.24;5.87;
62631;PMS5003;48703;51.248;-0.546;2023-09-19T16:49:03;6.57;6.36;
62631;PMS5003;48703;51.248;-0.546;2023-09-19T16:52:05;6.11;5.30;
62631;PMS5003;48703;51.248;-0.546;2023-09-19T16:55:06;6.59;5.21;
62631;PMS5003;48703;51.248;-0.546;2023-09-19T16:58:07;9.20;7.36;
62631;PMS5003;48703;51.248;-0.546;2023-09-19T17:01:09;5.77;4.37;
62631;PMS5003;48703;51.248;-0.546;2023-09-19T17:04:10;7.63;4.46;
62631;PMS5003;48703;51.248;-0.546;2023-09-19T17:07:11;5.63;4.49;
62631;PMS5003;48703;51.248;-0.546;2023-09-19T17:10:13;6.70;4.47;
62631;PMS5003;48703;51.248;-0.546;2023-09-19T17:13:14;4.90;4.29;
62631;PMS5003;48703;51.248;-0.546;2023-09-19T17:16:16;5.03;3.94;
62631;PMS5003;48703;51.248;-0.546;2023-09-19T17:19:17;5.34;4.96;
62631;PMS5003;48703;51.248;-0.546;2023-09-19T17:22:19;4.49;4.19;
62631;PMS5003;48703;51.248;-0.546;2023-09-19T17:25:20;4.13;4.13;
62631;PMS5003;48703;51.248;-0.546;2023-09-19T17:28:21;6.57;5.81;
62631;PMS5003;48703;51.248;-0.546;2023-09-19T17:31:23;5.71;4.86;
62631;PMS5003;48703;51.248;-0.546;2023-09-19T17:34:24;5.60;4.96;
62631;PMS5003;48703;51.248;-0.546;2023-09-19T17:37:25;6.20;5.07;
62631;PMS5003;48703;51.248;-0.546;2023-09-19T17:40:27;4.89;4.60;
62631;PMS5003;48703;51.248;-0.546;2023-09-19T17:43:28;5.37;4.79;
62631;PMS5003;48703;51.248;-0.546;2023-09-19T17:46:30;4.90;4.74;
62631;PMS5003;48703;51.248;-0.546;2023-09-19T17:49:31;3.87;3.63;
62631;PMS5003;48703;51.248;-0.546;2023-09-19T17:52:33;3.87;3.66;
62631;PMS5003;48703;51.248;-0.546;2023-09-19T17:55:36;5.00;4.26;
62631;PMS5003;48703;51.248;-0.546;2023-09-19T17:58:36;4.69;4.30;
62631;PMS5003;48703;51.248;-0.546;2023-09-19T18:01:37;4.73;4.31;
62631;PMS5003;48703;51.248;-0.546;2023-09-19T18:04:38;3.50;2.90;
62631;PMS5003;48703;51.248;-0.546;2023-09-19T18:07:42;3.97;3.63;
62631;PMS5003;48703;51.248;-0.546;2023-09-19T18:10:41;5.00;3.97;
62631;PMS5003;48703;51.248;-0.546;2023-09-19T18:13:42;3.93;3.60;
62631;PMS5003;48703;51.248;-0.546;2023-09-19T18:16:44;4.49;2.73;
62631;PMS5003;48703;51.248;-0.546;2023-09-19T18:19:45;5.04;4.61;
62631;PMS5003;48703;51.248;-0.546;2023-09-19T18:22:46;5.14;3.13;
62631;PMS5003;48703;51.248;-0.546;2023-09-19T18:25:48;3.66;3.40;
62631;PMS5003;48703;51.248;-0.546;2023-09-19T18:28:49;3.11;2.86;